sensor_id;sensor_type;location;lat;lon;timestamp;P1;durP1;ratioP1;P2;durP2;ratioP2
61473;SDS011;53694;49.784;30.150;2022-10-16T00:00:29;21.58;;;8.87;;
61473;SDS011;53694;49.784;30.150;2022-10-16T00:01:31;20.19;;;10.03;;
61473;SDS011;53694;49.784;30.150;2022-10-16T00:02:33;20.60;;;10.74;;
61473;SDS011;53694;49.784;30.150;2022-10-16T00:03:34;18.58;;;9.63;;
61473;SDS011;53694;49.784;30.150;2022-10-16T00:04:36;19.81;;;9.63;;
61473;SDS011;53694;49.784;30.150;2022-10-16T00:05:38;17.71;;;9.31;;
61473;SDS011;53694;49.784;30.150;2022-10-16T00:06:42;18.45;;;8.92;;
61473;SDS011;53694;49.784;30.150;2022-10-16T00:07:44;18.10;;;10.21;;
61473;SDS011;53694;49.784;30.150;2022-10-16T00:08:45;19.94;;;10.00;;
61473;SDS011;53694;49.784;30.150;2022-10-16T00:09:48;18.53;;;8.81;;
61473;SDS011;53694;49.784;30.150;2022-10-16T00:10:49;19.51;;;10.27;;
61473;SDS011;53694;49.784;30.150;2022-10-16T00:11:51;14.71;;;8.15;;
61473;SDS011;53694;49.784;30.150;2022-10-16T00:12:52;19.88;;;8.74;;
61473;SDS011;53694;49.784;30.150;2022-10-16T00:13:55;16.75;;;8.61;;
61473;SDS011;53694;49.784;30.150;2022-10-16T00:14:58;17.45;;;8.86;;
61473;SDS011;53694;49.784;30.150;2022-10-16T00:16:00;17.19;;;9.42;;
61473;SDS011;53694;49.784;30.150;2022-10-16T00:17:02;20.47;;;10.68;;
61473;SDS011;53694;49.784;30.150;2022-10-16T00:18:04;23.41;;;10.72;;
61473;SDS011;53694;49.784;30.150;2022-10-16T00:19:06;16.29;;;8.27;;
61473;SDS011;53694;49.784;30.150;2022-10-16T00:20:08;23.61;;;10.53;;
61473;SDS011;53694;49.784;30.150;2022-10-16T00:21:14;26.44;;;12.53;;
61473;SDS011;53694;49.784;30.150;2022-10-16T00:22:17;22.39;;;9.86;;
61473;SDS011;53694;49.784;30.150;2022-10-16T00:23:19;21.56;;;10.69;;
61473;SDS011;53694;49.784;30.150;2022-10-16T00:24:21;16.06;;;8.67;;
61473;SDS011;53694;49.784;30.150;2022-10-16T00:25:23;15.76;;;8.89;;
61473;SDS011;53694;49.784;30.150;2022-10-16T00:26:25;19.98;;;9.53;;
61473;SDS011;53694;49.784;30.150;2022-10-16T00:27:27;19.16;;;10.08;;
61473;SDS011;53694;49.784;30.150;2022-10-16T00:28:29;17.08;;;10.09;;
61473;SDS011;53694;49.784;30.150;2022-10-16T00:29:31;18.83;;;10.05;;
61473;SDS011;53694;49.784;30.150;2022-10-16T00:30:33;19.89;;;9.91;;
61473;SDS011;53694;49.784;30.150;2022-10-16T00:31:34;18.79;;;10.58;;
61473;SDS011;53694;49.784;30.150;2022-10-16T00:32:36;19.96;;;10.91;;
61473;SDS011;53694;49.784;30.150;2022-10-16T00:33:39;17.13;;;9.13;;
61473;SDS011;53694;49.784;30.150;2022-10-16T00:34:42;22.00;;;9.59;;
61473;SDS011;53694;49.784;30.150;2022-10-16T00:35:43;17.01;;;8.95;;
61473;SDS011;53694;49.784;30.150;2022-10-16T00:36:46;17.03;;;8.79;;
61473;SDS011;53694;49.784;30.150;2022-10-16T00:37:47;21.34;;;11.01;;
61473;SDS011;53694;49.784;30.150;2022-10-16T00:38:52;21.57;;;9.04;;
61473;SDS011;53694;49.784;30.150;2022-10-16T00:39:55;15.16;;;8.99;;
61473;SDS011;53694;49.784;30.150;2022-10-16T00:40:56;18.86;;;10.00;;
61473;SDS011;53694;49.784;30.150;2022-10-16T00:41:58;18.32;;;8.74;;
61473;SDS011;53694;49.784;30.150;2022-10-16T00:42:59;15.87;;;8.50;;
61473;SDS011;53694;49.784;30.150;2022-10-16T00:45:07;16.85;;;8.64;;
61473;SDS011;53694;49.784;30.150;2022-10-16T00:46:21;17.09;;;9.00;;
61473;SDS011;53694;49.784;30.150;2022-10-16T00:47:32;19.07;;;8.28;;
61473;SDS011;53694;49.784;30.150;2022-10-16T00:48:42;17.77;;;8.99;;
61473;SDS011;53694;49.784;30.150;2022-10-16T00:50:47;15.59;;;8.61;;
61473;SDS011;53694;49.784;30.150;2022-10-16T00:51:13;18.72;;;8.82;;
61473;SDS011;53694;49.784;30.150;2022-10-16T00:52:15;16.79;;;8.78;;
61473;SDS011;53694;49.784;30.150;2022-10-16T00:53:18;18.67;;;9.11;;
61473;SDS011;53694;49.784;30.150;2022-10-16T00:54:24;19.69;;;9.36;;
61473;SDS011;53694;49.784;30.150;2022-10-16T00:55:28;18.33;;;8.52;;
61473;SDS011;53694;49.784;30.150;2022-10-16T00:56:30;19.11;;;9.65;;
61473;SDS011;53694;49.784;30.150;2022-10-16T00:57:33;18.48;;;9.76;;
61473;SDS011;53694;49.784;30.150;2022-10-16T00:58:34;19.97;;;11.07;;
61473;SDS011;53694;49.784;30.150;2022-10-16T00:59:37;17.89;;;9.59;;
61473;SDS011;53694;49.784;30.150;2022-10-16T01:00:41;19.88;;;10.05;;
61473;SDS011;53694;49.784;30.150;2022-10-16T01:01:42;18.66;;;10.96;;
61473;SDS011;53694;49.784;30.150;2022-10-16T01:02:43;19.09;;;9.46;;
61473;SDS011;53694;49.784;30.150;2022-10-16T01:03:45;18.44;;;9.76;;
61473;SDS011;53694;49.784;30.150;2022-10-16T01:04:54;20.52;;;10.56;;
61473;SDS011;53694;49.784;30.150;2022-10-16T01:06:02;16.07;;;8.90;;
61473;SDS011;53694;49.784;30.150;2022-10-16T01:08:30;18.22;;;8.87;;
61473;SDS011;53694;49.784;30.150;2022-10-16T01:10:57;21.96;;;9.60;;
61473;SDS011;53694;49.784;30.150;2022-10-16T01:12:03;18.24;;;8.57;;
61473;SDS011;53694;49.784;30.150;2022-10-16T01:13:21;25.73;;;13.01;;
61473;SDS011;53694;49.784;30.150;2022-10-16T01:15:37;19.19;;;10.08;;
61473;SDS011;53694;49.784;30.150;2022-10-16T01:17:04;16.33;;;9.08;;
61473;SDS011;53694;49.784;30.150;2022-10-16T01:18:11;17.53;;;9.34;;
61473;SDS011;53694;49.784;30.150;2022-10-16T01:19:15;24.24;;;12.91;;
61473;SDS011;53694;49.784;30.150;2022-10-16T01:20:24;21.54;;;10.02;;
61473;SDS011;53694;49.784;30.150;2022-10-16T01:21:35;23.31;;;11.29;;
61473;SDS011;53694;49.784;30.150;2022-10-16T01:22:42;22.64;;;12.51;;
61473;SDS011;53694;49.784;30.150;2022-10-16T01:25:09;22.91;;;12.49;;
61473;SDS011;53694;49.784;30.150;2022-10-16T01:27:34;19.60;;;10.12;;
61473;SDS011;53694;49.784;30.150;2022-10-16T01:28:49;22.21;;;12.16;;
61473;SDS011;53694;49.784;30.150;2022-10-16T01:29:52;23.40;;;11.61;;
61473;SDS011;53694;49.784;30.150;2022-10-16T01:31:14;25.20;;;12.77;;
61473;SDS011;53694;49.784;30.150;2022-10-16T01:33:42;20.24;;;10.95;;
61473;SDS011;53694;49.784;30.150;2022-10-16T01:34:55;22.24;;;11.36;;
61473;SDS011;53694;49.784;30.150;2022-10-16T01:35:56;24.52;;;13.89;;
61473;SDS011;53694;49.784;30.150;2022-10-16T01:37:02;23.00;;;12.50;;
61473;SDS011;53694;49.784;30.150;2022-10-16T01:38:16;25.64;;;12.64;;
61473;SDS011;53694;49.784;30.150;2022-10-16T01:39:21;22.61;;;12.67;;
61473;SDS011;53694;49.784;30.150;2022-10-16T01:40:26;23.75;;;13.93;;
61473;SDS011;53694;49.784;30.150;2022-10-16T01:41:33;26.53;;;14.03;;
61473;SDS011;53694;49.784;30.150;2022-10-16T01:42:47;29.31;;;13.17;;
61473;SDS011;53694;49.784;30.150;2022-10-16T01:44:37;30.17;;;14.46;;
61473;SDS011;53694;49.784;30.150;2022-10-16T01:44:59;24.83;;;12.69;;
61473;SDS011;53694;49.784;30.150;2022-10-16T01:46:03;24.61;;;13.74;;
61473;SDS011;53694;49.784;30.150;2022-10-16T01:47:07;27.78;;;13.91;;
61473;SDS011;53694;49.784;30.150;2022-10-16T01:48:12;24.61;;;13.74;;
61473;SDS011;53694;49.784;30.150;2022-10-16T01:49:16;22.31;;;11.94;;
61473;SDS011;53694;49.784;30.150;2022-10-16T01:50:20;18.08;;;9.76;;
61473;SDS011;53694;49.784;30.150;2022-10-16T01:51:22;18.05;;;9.67;;
61473;SDS011;53694;49.784;30.150;2022-10-16T01:52:25;19.48;;;9.44;;
61473;SDS011;53694;49.784;30.150;2022-10-16T01:53:29;20.66;;;10.55;;
61473;SDS011;53694;49.784;30.150;2022-10-16T01:54:33;17.36;;;9.78;;
61473;SDS011;53694;49.784;30.150;2022-10-16T01:55:38;21.90;;;11.06;;
61473;SDS011;53694;49.784;30.150;2022-10-16T01:56:42;23.06;;;10.85;;
61473;SDS011;53694;49.784;30.150;2022-10-16T01:57:46;21.55;;;10.84;;
61473;SDS011;53694;49.784;30.150;2022-10-16T01:58:54;23.02;;;11.73;;
61473;SDS011;53694;49.784;30.150;2022-10-16T02:00:06;23.17;;;11.67;;
61473;SDS011;53694;49.784;30.150;2022-10-16T02:01:09;23.31;;;11.63;;
61473;SDS011;53694;49.784;30.150;2022-10-16T02:02:15;24.41;;;12.91;;
61473;SDS011;53694;49.784;30.150;2022-10-16T02:03:19;24.48;;;12.79;;
61473;SDS011;53694;49.784;30.150;2022-10-16T02:04:23;27.55;;;13.45;;
61473;SDS011;53694;49.784;30.150;2022-10-16T02:07:50;24.24;;;12.23;;
61473;SDS011;53694;49.784;30.150;2022-10-16T02:08:51;23.46;;;12.79;;
61473;SDS011;53694;49.784;30.150;2022-10-16T02:09:54;25.54;;;13.08;;
61473;SDS011;53694;49.784;30.150;2022-10-16T02:10:57;26.39;;;13.73;;
61473;SDS011;53694;49.784;30.150;2022-10-16T02:12:02;22.32;;;13.17;;
61473;SDS011;53694;49.784;30.150;2022-10-16T02:14:44;20.78;;;12.17;;
61473;SDS011;53694;49.784;30.150;2022-10-16T02:15:46;25.45;;;13.44;;
61473;SDS011;53694;49.784;30.150;2022-10-16T02:16:48;23.21;;;11.83;;
61473;SDS011;53694;49.784;30.150;2022-10-16T02:17:49;18.32;;;9.96;;
61473;SDS011;53694;49.784;30.150;2022-10-16T02:18:50;19.34;;;10.94;;
61473;SDS011;53694;49.784;30.150;2022-10-16T02:19:53;17.51;;;9.21;;
61473;SDS011;53694;49.784;30.150;2022-10-16T02:21:00;18.94;;;9.05;;
61473;SDS011;53694;49.784;30.150;2022-10-16T02:22:22;21.69;;;9.92;;
61473;SDS011;53694;49.784;30.150;2022-10-16T02:25:07;20.98;;;11.08;;
61473;SDS011;53694;49.784;30.150;2022-10-16T02:26:12;24.93;;;11.06;;
61473;SDS011;53694;49.784;30.150;2022-10-16T02:28:23;25.91;;;12.63;;
61473;SDS011;53694;49.784;30.150;2022-10-16T02:29:27;22.66;;;13.24;;
61473;SDS011;53694;49.784;30.150;2022-10-16T02:31:03;23.92;;;13.09;;
61473;SDS011;53694;49.784;30.150;2022-10-16T02:31:50;24.29;;;13.93;;
61473;SDS011;53694;49.784;30.150;2022-10-16T02:32:55;29.03;;;14.59;;
61473;SDS011;53694;49.784;30.150;2022-10-16T02:33:59;25.53;;;14.19;;
61473;SDS011;53694;49.784;30.150;2022-10-16T02:35:04;30.27;;;15.08;;
61473;SDS011;53694;49.784;30.150;2022-10-16T02:36:08;29.22;;;14.12;;
61473;SDS011;53694;49.784;30.150;2022-10-16T02:37:11;26.94;;;14.00;;
61473;SDS011;53694;49.784;30.150;2022-10-16T02:38:14;23.82;;;14.01;;
61473;SDS011;53694;49.784;30.150;2022-10-16T02:39:17;23.26;;;13.14;;
61473;SDS011;53694;49.784;30.150;2022-10-16T02:40:20;23.84;;;13.68;;
61473;SDS011;53694;49.784;30.150;2022-10-16T02:41:23;27.23;;;12.92;;
61473;SDS011;53694;49.784;30.150;2022-10-16T02:42:29;26.15;;;13.89;;
61473;SDS011;53694;49.784;30.150;2022-10-16T02:43:32;25.94;;;13.56;;
61473;SDS011;53694;49.784;30.150;2022-10-16T02:44:34;23.69;;;13.61;;
61473;SDS011;53694;49.784;30.150;2022-10-16T02:45:36;27.77;;;13.78;;
61473;SDS011;53694;49.784;30.150;2022-10-16T02:46:38;25.25;;;13.08;;
61473;SDS011;53694;49.784;30.150;2022-10-16T02:47:40;27.01;;;13.42;;
61473;SDS011;53694;49.784;30.150;2022-10-16T02:48:41;22.30;;;11.00;;
61473;SDS011;53694;49.784;30.150;2022-10-16T02:49:43;20.98;;;10.99;;
61473;SDS011;53694;49.784;30.150;2022-10-16T02:50:44;18.81;;;10.00;;
61473;SDS011;53694;49.784;30.150;2022-10-16T02:51:46;16.99;;;8.91;;
61473;SDS011;53694;49.784;30.150;2022-10-16T02:52:48;20.17;;;9.44;;
61473;SDS011;53694;49.784;30.150;2022-10-16T02:53:49;20.44;;;9.97;;
61473;SDS011;53694;49.784;30.150;2022-10-16T02:54:51;19.52;;;10.26;;
61473;SDS011;53694;49.784;30.150;2022-10-16T02:55:52;21.64;;;10.34;;
61473;SDS011;53694;49.784;30.150;2022-10-16T02:56:54;20.76;;;10.09;;
61473;SDS011;53694;49.784;30.150;2022-10-16T02:57:55;20.64;;;11.04;;
61473;SDS011;53694;49.784;30.150;2022-10-16T02:58:57;22.32;;;10.99;;
61473;SDS011;53694;49.784;30.150;2022-10-16T02:59:58;22.94;;;11.83;;
61473;SDS011;53694;49.784;30.150;2022-10-16T03:01:00;21.68;;;12.16;;
61473;SDS011;53694;49.784;30.150;2022-10-16T03:02:01;21.46;;;11.91;;
61473;SDS011;53694;49.784;30.150;2022-10-16T03:03:03;19.96;;;12.54;;
61473;SDS011;53694;49.784;30.150;2022-10-16T03:04:04;27.28;;;13.68;;
61473;SDS011;53694;49.784;30.150;2022-10-16T03:05:06;22.30;;;12.24;;
61473;SDS011;53694;49.784;30.150;2022-10-16T03:06:09;22.70;;;12.24;;
61473;SDS011;53694;49.784;30.150;2022-10-16T03:07:12;23.88;;;12.45;;
61473;SDS011;53694;49.784;30.150;2022-10-16T03:08:13;23.86;;;12.87;;
61473;SDS011;53694;49.784;30.150;2022-10-16T03:09:15;24.29;;;13.04;;
61473;SDS011;53694;49.784;30.150;2022-10-16T03:10:16;18.42;;;10.84;;
61473;SDS011;53694;49.784;30.150;2022-10-16T03:11:18;19.01;;;10.15;;
61473;SDS011;53694;49.784;30.150;2022-10-16T03:12:19;17.27;;;9.41;;
61473;SDS011;53694;49.784;30.150;2022-10-16T03:13:21;19.62;;;8.71;;
61473;SDS011;53694;49.784;30.150;2022-10-16T03:14:23;19.98;;;9.82;;
61473;SDS011;53694;49.784;30.150;2022-10-16T03:15:24;16.36;;;9.19;;
61473;SDS011;53694;49.784;30.150;2022-10-16T03:16:26;22.31;;;11.31;;
61473;SDS011;53694;49.784;30.150;2022-10-16T03:17:28;18.01;;;9.39;;
61473;SDS011;53694;49.784;30.150;2022-10-16T03:18:29;19.73;;;10.17;;
61473;SDS011;53694;49.784;30.150;2022-10-16T03:19:31;24.04;;;10.47;;
61473;SDS011;53694;49.784;30.150;2022-10-16T03:20:33;16.91;;;10.18;;
61473;SDS011;53694;49.784;30.150;2022-10-16T03:21:34;21.37;;;11.08;;
61473;SDS011;53694;49.784;30.150;2022-10-16T03:22:36;22.69;;;10.59;;
61473;SDS011;53694;49.784;30.150;2022-10-16T03:23:37;20.67;;;10.72;;
61473;SDS011;53694;49.784;30.150;2022-10-16T03:24:39;22.31;;;12.21;;
61473;SDS011;53694;49.784;30.150;2022-10-16T03:25:40;22.24;;;11.37;;
61473;SDS011;53694;49.784;30.150;2022-10-16T03:26:42;26.13;;;12.32;;
61473;SDS011;53694;49.784;30.150;2022-10-16T03:27:43;23.39;;;12.36;;
61473;SDS011;53694;49.784;30.150;2022-10-16T03:28:45;23.49;;;11.90;;
61473;SDS011;53694;49.784;30.150;2022-10-16T03:29:46;20.62;;;11.46;;
61473;SDS011;53694;49.784;30.150;2022-10-16T03:30:48;27.09;;;11.81;;
61473;SDS011;53694;49.784;30.150;2022-10-16T03:31:49;24.78;;;11.40;;
61473;SDS011;53694;49.784;30.150;2022-10-16T03:32:51;24.74;;;12.55;;
61473;SDS011;53694;49.784;30.150;2022-10-16T03:33:52;23.81;;;12.54;;
61473;SDS011;53694;49.784;30.150;2022-10-16T03:42:32;18.02;;;10.17;;
61473;SDS011;53694;49.784;30.150;2022-10-16T03:43:34;20.32;;;8.68;;
61473;SDS011;53694;49.784;30.150;2022-10-16T03:44:35;17.16;;;8.96;;
61473;SDS011;53694;49.784;30.150;2022-10-16T03:45:37;16.03;;;8.30;;
61473;SDS011;53694;49.784;30.150;2022-10-16T03:46:38;18.57;;;8.75;;
61473;SDS011;53694;49.784;30.150;2022-10-16T03:47:40;19.50;;;8.67;;
61473;SDS011;53694;49.784;30.150;2022-10-16T03:48:42;18.58;;;8.80;;
61473;SDS011;53694;49.784;30.150;2022-10-16T03:49:43;20.34;;;9.86;;
61473;SDS011;53694;49.784;30.150;2022-10-16T03:50:45;21.06;;;10.33;;
61473;SDS011;53694;49.784;30.150;2022-10-16T03:51:46;17.56;;;10.08;;
61473;SDS011;53694;49.784;30.150;2022-10-16T03:52:48;18.99;;;10.98;;
61473;SDS011;53694;49.784;30.150;2022-10-16T03:53:49;25.81;;;12.41;;
61473;SDS011;53694;49.784;30.150;2022-10-16T03:54:51;22.29;;;11.69;;
61473;SDS011;53694;49.784;30.150;2022-10-16T03:55:52;24.09;;;11.79;;
61473;SDS011;53694;49.784;30.150;2022-10-16T03:56:54;25.10;;;12.02;;
61473;SDS011;53694;49.784;30.150;2022-10-16T03:57:56;26.71;;;11.22;;
61473;SDS011;53694;49.784;30.150;2022-10-16T03:58:57;24.63;;;11.04;;
61473;SDS011;53694;49.784;30.150;2022-10-16T03:59:58;23.34;;;11.12;;
61473;SDS011;53694;49.784;30.150;2022-10-16T04:01:00;20.14;;;11.07;;
61473;SDS011;53694;49.784;30.150;2022-10-16T04:02:02;22.11;;;10.78;;
61473;SDS011;53694;49.784;30.150;2022-10-16T04:03:03;22.16;;;11.38;;
61473;SDS011;53694;49.784;30.150;2022-10-16T04:04:04;22.99;;;13.22;;
61473;SDS011;53694;49.784;30.150;2022-10-16T04:05:06;20.70;;;11.81;;
61473;SDS011;53694;49.784;30.150;2022-10-16T04:06:09;23.09;;;12.09;;
61473;SDS011;53694;49.784;30.150;2022-10-16T04:07:10;24.01;;;12.19;;
61473;SDS011;53694;49.784;30.150;2022-10-16T04:08:12;23.64;;;12.38;;
61473;SDS011;53694;49.784;30.150;2022-10-16T04:09:13;21.93;;;13.06;;
61473;SDS011;53694;49.784;30.150;2022-10-16T04:10:15;19.77;;;10.84;;
61473;SDS011;53694;49.784;30.150;2022-10-16T04:11:17;19.12;;;9.11;;
61473;SDS011;53694;49.784;30.150;2022-10-16T04:12:18;15.61;;;8.53;;
61473;SDS011;53694;49.784;30.150;2022-10-16T04:13:20;21.44;;;8.63;;
61473;SDS011;53694;49.784;30.150;2022-10-16T04:14:21;16.14;;;7.81;;
61473;SDS011;53694;49.784;30.150;2022-10-16T04:15:23;16.53;;;8.13;;
61473;SDS011;53694;49.784;30.150;2022-10-16T04:16:25;16.17;;;7.85;;
61473;SDS011;53694;49.784;30.150;2022-10-16T04:17:27;17.96;;;8.91;;
61473;SDS011;53694;49.784;30.150;2022-10-16T04:18:29;17.09;;;9.14;;
61473;SDS011;53694;49.784;30.150;2022-10-16T04:19:30;18.72;;;8.67;;
61473;SDS011;53694;49.784;30.150;2022-10-16T04:20:32;20.62;;;10.41;;
61473;SDS011;53694;49.784;30.150;2022-10-16T04:21:34;16.97;;;9.48;;
61473;SDS011;53694;49.784;30.150;2022-10-16T04:22:36;22.24;;;10.08;;
61473;SDS011;53694;49.784;30.150;2022-10-16T04:23:38;22.11;;;10.57;;
61473;SDS011;53694;49.784;30.150;2022-10-16T04:24:39;19.05;;;10.46;;
61473;SDS011;53694;49.784;30.150;2022-10-16T04:25:41;21.53;;;10.95;;
61473;SDS011;53694;49.784;30.150;2022-10-16T04:26:42;22.13;;;11.17;;
61473;SDS011;53694;49.784;30.150;2022-10-16T04:27:44;26.15;;;12.36;;
61473;SDS011;53694;49.784;30.150;2022-10-16T04:28:45;24.98;;;12.31;;
61473;SDS011;53694;49.784;30.150;2022-10-16T04:29:47;24.74;;;11.89;;
61473;SDS011;53694;49.784;30.150;2022-10-16T04:30:48;22.74;;;12.03;;
61473;SDS011;53694;49.784;30.150;2022-10-16T04:31:50;24.61;;;12.60;;
61473;SDS011;53694;49.784;30.150;2022-10-16T04:32:52;21.72;;;11.96;;
61473;SDS011;53694;49.784;30.150;2022-10-16T04:33:53;24.95;;;11.67;;
61473;SDS011;53694;49.784;30.150;2022-10-16T04:34:55;26.64;;;11.10;;
61473;SDS011;53694;49.784;30.150;2022-10-16T04:35:57;18.43;;;9.89;;
61473;SDS011;53694;49.784;30.150;2022-10-16T04:37:00;17.39;;;9.43;;
61473;SDS011;53694;49.784;30.150;2022-10-16T04:38:01;18.59;;;8.61;;
61473;SDS011;53694;49.784;30.150;2022-10-16T04:39:03;26.12;;;9.51;;
61473;SDS011;53694;49.784;30.150;2022-10-16T04:40:05;22.67;;;9.50;;
61473;SDS011;53694;49.784;30.150;2022-10-16T04:41:07;23.21;;;10.32;;
61473;SDS011;53694;49.784;30.150;2022-10-16T04:42:09;26.01;;;10.34;;
61473;SDS011;53694;49.784;30.150;2022-10-16T04:43:10;19.69;;;10.15;;
61473;SDS011;53694;49.784;30.150;2022-10-16T04:44:12;27.56;;;10.64;;
61473;SDS011;53694;49.784;30.150;2022-10-16T04:45:14;19.67;;;10.72;;
61473;SDS011;53694;49.784;30.150;2022-10-16T04:46:15;20.83;;;10.15;;
61473;SDS011;53694;49.784;30.150;2022-10-16T04:47:17;19.55;;;10.18;;
61473;SDS011;53694;49.784;30.150;2022-10-16T04:48:18;21.49;;;11.68;;
61473;SDS011;53694;49.784;30.150;2022-10-16T04:49:20;25.71;;;12.76;;
61473;SDS011;53694;49.784;30.150;2022-10-16T04:50:21;27.21;;;12.86;;
61473;SDS011;53694;49.784;30.150;2022-10-16T04:51:23;22.96;;;11.80;;
61473;SDS011;53694;49.784;30.150;2022-10-16T04:52:24;24.37;;;12.66;;
61473;SDS011;53694;49.784;30.150;2022-10-16T04:53:26;23.29;;;13.09;;
61473;SDS011;53694;49.784;30.150;2022-10-16T04:54:27;24.08;;;13.14;;
61473;SDS011;53694;49.784;30.150;2022-10-16T04:55:29;28.26;;;11.59;;
61473;SDS011;53694;49.784;30.150;2022-10-16T04:56:31;21.90;;;10.24;;
61473;SDS011;53694;49.784;30.150;2022-10-16T04:57:32;16.11;;;9.09;;
61473;SDS011;53694;49.784;30.150;2022-10-16T04:58:34;17.67;;;8.42;;
61473;SDS011;53694;49.784;30.150;2022-10-16T04:59:35;19.15;;;10.16;;
61473;SDS011;53694;49.784;30.150;2022-10-16T05:00:37;18.25;;;8.73;;
61473;SDS011;53694;49.784;30.150;2022-10-16T05:01:39;19.44;;;8.89;;
61473;SDS011;53694;49.784;30.150;2022-10-16T05:02:40;14.82;;;8.84;;
61473;SDS011;53694;49.784;30.150;2022-10-16T05:03:42;20.54;;;10.08;;
61473;SDS011;53694;49.784;30.150;2022-10-16T05:04:43;21.29;;;9.78;;
61473;SDS011;53694;49.784;30.150;2022-10-16T05:05:45;21.09;;;10.69;;
61473;SDS011;53694;49.784;30.150;2022-10-16T05:06:47;20.83;;;10.05;;
61473;SDS011;53694;49.784;30.150;2022-10-16T05:07:49;20.87;;;10.15;;
61473;SDS011;53694;49.784;30.150;2022-10-16T05:08:50;23.11;;;11.25;;
61473;SDS011;53694;49.784;30.150;2022-10-16T05:09:52;24.46;;;10.88;;
61473;SDS011;53694;49.784;30.150;2022-10-16T05:10:53;24.36;;;11.72;;
61473;SDS011;53694;49.784;30.150;2022-10-16T05:11:55;21.85;;;11.46;;
61473;SDS011;53694;49.784;30.150;2022-10-16T05:12:57;23.17;;;13.65;;
61473;SDS011;53694;49.784;30.150;2022-10-16T05:13:58;19.65;;;11.75;;
61473;SDS011;53694;49.784;30.150;2022-10-16T05:15:00;23.48;;;12.75;;
61473;SDS011;53694;49.784;30.150;2022-10-16T05:16:01;24.53;;;13.21;;
61473;SDS011;53694;49.784;30.150;2022-10-16T05:17:03;27.29;;;12.64;;
61473;SDS011;53694;49.784;30.150;2022-10-16T05:18:05;26.41;;;13.64;;
61473;SDS011;53694;49.784;30.150;2022-10-16T05:19:06;30.21;;;14.01;;
61473;SDS011;53694;49.784;30.150;2022-10-16T05:20:09;30.68;;;13.79;;
61473;SDS011;53694;49.784;30.150;2022-10-16T05:21:11;23.75;;;13.31;;
61473;SDS011;53694;49.784;30.150;2022-10-16T05:22:12;28.29;;;14.64;;
61473;SDS011;53694;49.784;30.150;2022-10-16T05:23:14;30.15;;;14.19;;
61473;SDS011;53694;49.784;30.150;2022-10-16T05:24:15;24.81;;;14.32;;
61473;SDS011;53694;49.784;30.150;2022-10-16T05:25:17;24.00;;;12.92;;
61473;SDS011;53694;49.784;30.150;2022-10-16T05:26:19;25.25;;;12.33;;
61473;SDS011;53694;49.784;30.150;2022-10-16T05:27:20;20.29;;;10.36;;
61473;SDS011;53694;49.784;30.150;2022-10-16T05:28:22;23.26;;;10.79;;
61473;SDS011;53694;49.784;30.150;2022-10-16T05:29:23;19.35;;;10.70;;
61473;SDS011;53694;49.784;30.150;2022-10-16T05:30:25;19.71;;;10.72;;
61473;SDS011;53694;49.784;30.150;2022-10-16T05:31:27;24.66;;;11.55;;
61473;SDS011;53694;49.784;30.150;2022-10-16T05:32:28;23.19;;;11.79;;
61473;SDS011;53694;49.784;30.150;2022-10-16T05:33:30;25.64;;;11.78;;
61473;SDS011;53694;49.784;30.150;2022-10-16T05:34:31;23.36;;;12.07;;
61473;SDS011;53694;49.784;30.150;2022-10-16T05:35:33;28.39;;;14.40;;
61473;SDS011;53694;49.784;30.150;2022-10-16T05:36:35;22.11;;;13.30;;
61473;SDS011;53694;49.784;30.150;2022-10-16T05:37:36;21.75;;;12.38;;
61473;SDS011;53694;49.784;30.150;2022-10-16T05:38:38;22.03;;;13.44;;
61473;SDS011;53694;49.784;30.150;2022-10-16T05:39:39;28.64;;;13.74;;
61473;SDS011;53694;49.784;30.150;2022-10-16T05:40:41;29.18;;;14.71;;
61473;SDS011;53694;49.784;30.150;2022-10-16T05:41:43;32.54;;;15.28;;
61473;SDS011;53694;49.784;30.150;2022-10-16T05:42:45;37.93;;;14.63;;
61473;SDS011;53694;49.784;30.150;2022-10-16T05:43:46;32.58;;;15.18;;
61473;SDS011;53694;49.784;30.150;2022-10-16T05:44:49;39.57;;;18.32;;
61473;SDS011;53694;49.784;30.150;2022-10-16T05:45:54;42.11;;;21.93;;
61473;SDS011;53694;49.784;30.150;2022-10-16T05:46:59;34.84;;;18.94;;
61473;SDS011;53694;49.784;30.150;2022-10-16T05:48:01;37.95;;;20.24;;
61473;SDS011;53694;49.784;30.150;2022-10-16T05:49:03;34.62;;;17.03;;
61473;SDS011;53694;49.784;30.150;2022-10-16T05:50:05;33.89;;;18.85;;
61473;SDS011;53694;49.784;30.150;2022-10-16T05:51:09;37.81;;;18.16;;
61473;SDS011;53694;49.784;30.150;2022-10-16T05:52:12;31.01;;;15.69;;
61473;SDS011;53694;49.784;30.150;2022-10-16T05:53:14;34.69;;;14.64;;
61473;SDS011;53694;49.784;30.150;2022-10-16T05:54:15;28.54;;;13.75;;
61473;SDS011;53694;49.784;30.150;2022-10-16T05:55:16;25.86;;;13.79;;
61473;SDS011;53694;49.784;30.150;2022-10-16T05:56:18;31.35;;;13.61;;
61473;SDS011;53694;49.784;30.150;2022-10-16T05:57:20;27.30;;;13.65;;
61473;SDS011;53694;49.784;30.150;2022-10-16T05:58:22;28.31;;;14.69;;
61473;SDS011;53694;49.784;30.150;2022-10-16T05:59:24;27.89;;;14.81;;
61473;SDS011;53694;49.784;30.150;2022-10-16T06:00:25;32.01;;;15.23;;
61473;SDS011;53694;49.784;30.150;2022-10-16T06:01:27;28.18;;;15.34;;
61473;SDS011;53694;49.784;30.150;2022-10-16T06:02:28;31.16;;;15.96;;
61473;SDS011;53694;49.784;30.150;2022-10-16T06:03:30;27.93;;;15.48;;
61473;SDS011;53694;49.784;30.150;2022-10-16T06:04:31;30.17;;;16.07;;
61473;SDS011;53694;49.784;30.150;2022-10-16T06:05:33;30.08;;;16.01;;
61473;SDS011;53694;49.784;30.150;2022-10-16T06:06:34;27.06;;;15.41;;
61473;SDS011;53694;49.784;30.150;2022-10-16T06:07:36;30.92;;;16.56;;
61473;SDS011;53694;49.784;30.150;2022-10-16T06:08:38;29.10;;;16.41;;
61473;SDS011;53694;49.784;30.150;2022-10-16T06:09:40;32.27;;;17.29;;
61473;SDS011;53694;49.784;30.150;2022-10-16T06:10:42;30.16;;;16.09;;
61473;SDS011;53694;49.784;30.150;2022-10-16T06:11:44;34.03;;;16.79;;
61473;SDS011;53694;49.784;30.150;2022-10-16T06:12:45;37.26;;;17.57;;
61473;SDS011;53694;49.784;30.150;2022-10-16T06:13:50;31.98;;;16.73;;
61473;SDS011;53694;49.784;30.150;2022-10-16T06:14:53;30.20;;;17.20;;
61473;SDS011;53694;49.784;30.150;2022-10-16T06:15:56;28.49;;;16.95;;
61473;SDS011;53694;49.784;30.150;2022-10-16T06:17:00;31.57;;;16.03;;
61473;SDS011;53694;49.784;30.150;2022-10-16T06:18:01;26.04;;;14.44;;
61473;SDS011;53694;49.784;30.150;2022-10-16T06:19:03;29.84;;;15.90;;
61473;SDS011;53694;49.784;30.150;2022-10-16T06:20:05;25.56;;;13.70;;
61473;SDS011;53694;49.784;30.150;2022-10-16T06:21:08;22.08;;;12.12;;
61473;SDS011;53694;49.784;30.150;2022-10-16T06:22:12;25.58;;;11.78;;
61473;SDS011;53694;49.784;30.150;2022-10-16T06:23:13;23.47;;;10.64;;
61473;SDS011;53694;49.784;30.150;2022-10-16T06:24:15;17.44;;;7.80;;
61473;SDS011;53694;49.784;30.150;2022-10-16T06:25:16;20.36;;;10.72;;
61473;SDS011;53694;49.784;30.150;2022-10-16T06:26:19;15.87;;;9.61;;
61473;SDS011;53694;49.784;30.150;2022-10-16T06:27:22;26.16;;;11.16;;